createdAt,value
2024-03-05T00:02:21.869Z,35.62
2024-03-05T00:04:48.398Z,35.60
2024-03-05T00:07:14.633Z,35.61
2024-03-05T00:09:40.961Z,35.59
2024-03-05T00:12:07.299Z,35.57
2024-03-05T00:14:33.721Z,35.59
2024-03-05T00:17:00.185Z,35.63
2024-03-05T00:19:26.628Z,35.63
2024-03-05T00:21:52.920Z,35.61
2024-03-05T00:24:19.255Z,35.63
2024-03-05T00:26:45.748Z,35.66
2024-03-05T00:29:12.122Z,35.60
2024-03-05T00:31:38.551Z,35.66
2024-03-05T00:34:04.886Z,35.64
2024-03-05T00:36:31.218Z,35.66
2024-03-05T00:38:57.642Z,35.64
2024-03-05T00:41:23.952Z,35.64
2024-03-05T00:43:50.493Z,35.71
2024-03-05T00:46:16.751Z,35.64
2024-03-05T00:48:43.072Z,35.65
2024-03-05T00:51:09.510Z,35.67
2024-03-05T00:53:35.929Z,35.66
2024-03-05T00:56:02.294Z,35.70
2024-03-05T00:58:28.871Z,35.73
2024-03-05T01:00:55.246Z,35.74
2024-03-05T01:03:21.672Z,35.77
2024-03-05T01:05:48.119Z,35.71
2024-03-05T01:08:14.521Z,35.75
2024-03-05T01:10:40.929Z,35.76
2024-03-05T01:13:07.232Z,35.76
2024-03-05T01:15:33.661Z,35.81
2024-03-05T01:18:00.085Z,35.76
2024-03-05T01:20:26.407Z,35.77
2024-03-05T01:22:52.773Z,35.74
2024-03-05T01:25:19.059Z,35.75
2024-03-05T01:27:45.325Z,35.79
2024-03-05T01:30:11.721Z,35.77
2024-03-05T01:32:38.082Z,35.73
2024-03-05T01:35:04.524Z,35.75
2024-03-05T01:37:30.831Z,35.74
2024-03-05T01:39:57.311Z,35.70
2024-03-05T01:42:23.583Z,35.67
2024-03-05T01:44:49.921Z,35.73
2024-03-05T01:47:16.411Z,35.67
2024-03-05T01:49:42.690Z,35.72
2024-03-05T01:52:09.019Z,35.70
2024-03-05T01:54:35.344Z,35.75
2024-03-05T01:57:01.704Z,35.76
2024-03-05T01:59:28.110Z,35.78
2024-03-05T02:01:54.564Z,35.76
2024-03-05T02:04:20.998Z,35.76
2024-03-05T02:06:47.446Z,35.79
2024-03-05T02:09:13.880Z,35.75
2024-03-05T02:11:49.551Z,35.74
2024-03-05T02:14:06.606Z,35.75
2024-03-05T02:16:33.053Z,35.73
2024-03-05T02:18:59.381Z,35.76
2024-03-05T02:21:25.805Z,35.77
2024-03-05T02:23:52.157Z,35.81
2024-03-05T02:26:18.574Z,35.76
2024-03-05T02:28:45.025Z,35.82
2024-03-05T02:31:11.423Z,35.78
2024-03-05T02:33:37.936Z,35.79
2024-03-05T02:36:04.374Z,35.88
2024-03-05T02:38:30.649Z,35.84
2024-03-05T02:40:57.086Z,35.84
2024-03-05T02:43:23.533Z,35.83
2024-03-05T02:45:49.945Z,35.84
2024-03-05T02:48:16.450Z,35.85
2024-03-05T02:50:42.695Z,35.88
2024-03-05T02:53:09.045Z,35.91
2024-03-05T02:55:35.467Z,35.89
2024-03-05T02:58:01.907Z,35.92
2024-03-05T03:00:28.275Z,35.91
2024-03-05T03:02:54.580Z,35.91
2024-03-05T03:05:20.895Z,35.96
2024-03-05T03:07:47.366Z,35.96
2024-03-05T03:10:13.803Z,36.03
2024-03-05T03:12:40.088Z,35.98
2024-03-05T03:15:06.440Z,35.98
2024-03-05T03:17:34.609Z,36.04
2024-03-05T03:19:59.154Z,36.05
2024-03-05T03:22:25.528Z,36.05
2024-03-05T03:24:51.818Z,36.08
2024-03-05T03:27:18.149Z,36.07
2024-03-05T03:29:44.669Z,36.07
2024-03-05T03:32:11.024Z,36.09
2024-03-05T03:34:37.410Z,36.06
2024-03-05T03:37:03.710Z,36.08
2024-03-05T03:39:30.079Z,36.08
2024-03-05T03:41:56.699Z,36.10
2024-03-05T03:44:22.946Z,36.09
2024-03-05T03:46:49.381Z,36.09
2024-03-05T03:49:15.657Z,36.11
2024-03-05T03:51:41.982Z,36.14
2024-03-05T03:54:08.294Z,36.12
2024-03-05T03:56:34.767Z,36.13
2024-03-05T03:59:01.171Z,36.14
2024-03-05T04:01:27.460Z,36.13
2024-03-05T04:03:53.840Z,36.14
2024-03-05T04:06:20.169Z,36.14
2024-03-05T04:08:46.676Z,36.15
2024-03-05T04:11:13.258Z,36.14
2024-03-05T04:13:39.728Z,36.21
2024-03-05T04:16:06.017Z,36.16
2024-03-05T04:18:32.455Z,36.18
2024-03-05T04:20:58.903Z,36.20
2024-03-05T04:23:25.328Z,36.16
2024-03-05T04:25:51.839Z,36.21
2024-03-05T04:28:18.126Z,36.18
2024-03-05T04:30:44.510Z,36.21
2024-03-05T04:33:11.009Z,36.20
2024-03-05T04:35:37.291Z,36.18
2024-03-05T04:38:03.678Z,36.19
2024-03-05T04:40:30.082Z,36.19
2024-03-05T04:42:56.480Z,36.17
2024-03-05T04:45:23.043Z,36.16
2024-03-05T04:47:49.388Z,36.19
2024-03-05T04:50:16.329Z,36.20
2024-03-05T04:52:42.125Z,36.41
2024-03-05T04:55:08.444Z,37.00
2024-03-05T04:57:34.879Z,36.82
2024-03-05T05:00:01.372Z,36.49
2024-03-05T05:02:27.852Z,36.35
2024-03-05T05:04:54.381Z,36.28
2024-03-05T05:07:20.752Z,36.22
2024-03-05T05:09:47.152Z,36.17
2024-03-05T05:12:13.598Z,36.14
2024-03-05T05:14:40.036Z,36.07
2024-03-05T05:17:06.475Z,36.08
2024-03-05T05:19:32.827Z,36.07
2024-03-05T05:21:59.111Z,36.04
2024-03-05T05:24:25.552Z,36.00
2024-03-05T05:26:51.893Z,35.94
2024-03-05T05:29:27.201Z,35.83
2024-03-05T05:31:44.633Z,35.91
2024-03-05T05:34:10.915Z,35.89
2024-03-05T05:36:37.291Z,35.85
2024-03-05T05:39:03.733Z,35.91
2024-03-05T05:41:30.251Z,35.95
2024-03-05T05:43:56.656Z,35.98
2024-03-05T05:46:23.201Z,35.89
2024-03-05T05:48:49.507Z,35.88
2024-03-05T05:51:15.822Z,35.86
2024-03-05T05:53:42.134Z,35.88
2024-03-05T05:56:08.615Z,35.78
2024-03-05T05:58:35.020Z,35.78
2024-03-05T06:01:01.348Z,35.80
2024-03-05T06:03:27.770Z,35.84
2024-03-05T06:05:54.100Z,35.78
2024-03-05T06:08:20.481Z,35.76
2024-03-05T06:10:47.078Z,35.76
2024-03-05T06:13:13.218Z,35.73
2024-03-05T06:15:39.787Z,35.74
2024-03-05T06:18:06.117Z,35.76
2024-03-05T06:20:32.389Z,35.73
2024-03-05T06:22:58.827Z,35.78
2024-03-05T06:25:25.175Z,35.76
2024-03-05T06:27:51.590Z,35.77
2024-03-05T06:30:17.959Z,35.74
2024-03-05T06:32:44.355Z,35.74
2024-03-05T06:35:10.677Z,35.80
2024-03-05T06:37:37.146Z,35.70
2024-03-05T06:40:03.444Z,35.73
2024-03-05T06:42:29.819Z,35.73
2024-03-05T06:44:56.210Z,35.71
2024-03-05T06:47:22.651Z,35.72
2024-03-05T06:49:49.155Z,35.72
2024-03-05T06:52:15.593Z,35.67
2024-03-05T06:54:41.937Z,35.72
2024-03-05T06:57:08.436Z,35.74
2024-03-05T06:59:34.706Z,35.76
2024-03-05T07:02:01.428Z,35.77
2024-03-05T07:04:27.508Z,35.78
2024-03-05T07:06:53.896Z,35.83
2024-03-05T07:09:20.319Z,35.90
2024-03-05T07:11:46.834Z,35.97
2024-03-05T07:14:13.311Z,35.99
2024-03-05T07:16:39.675Z,35.93
2024-03-05T07:19:06.070Z,35.99
2024-03-05T07:21:32.441Z,35.96
2024-03-05T07:23:58.845Z,35.92
2024-03-05T07:26:25.584Z,35.92
2024-03-05T07:28:51.786Z,35.92
2024-03-05T07:31:19.021Z,35.98
2024-03-05T07:33:46.434Z,36.09
2024-03-05T07:36:10.712Z,36.17
2024-03-05T07:38:37.014Z,36.22
2024-03-05T07:41:13.291Z,36.27
2024-03-05T07:43:29.916Z,36.32
2024-03-05T07:45:56.342Z,36.33
2024-03-05T07:48:22.751Z,36.41
2024-03-05T07:50:49.100Z,36.44
2024-03-05T07:53:15.424Z,36.47
2024-03-05T07:55:46.598Z,36.48
2024-03-05T07:58:08.202Z,36.50
2024-03-05T08:00:34.624Z,36.50
2024-03-05T08:03:00.908Z,36.54
2024-03-05T08:05:27.425Z,36.58
2024-03-05T08:07:53.949Z,36.59
2024-03-05T08:10:20.457Z,36.61
2024-03-05T08:12:47.026Z,36.73
2024-03-05T08:15:13.222Z,36.73
2024-03-05T08:17:39.704Z,36.72
2024-03-05T08:20:06.222Z,36.80
2024-03-05T08:22:32.963Z,36.85
2024-03-05T08:24:59.267Z,36.72
2024-03-05T08:27:25.769Z,37.00
2024-03-05T08:29:52.048Z,36.66
2024-03-05T08:32:18.353Z,36.67
2024-03-05T08:34:44.751Z,36.74
2024-03-05T08:37:11.237Z,36.77
2024-03-05T08:39:37.564Z,36.88
2024-03-05T08:42:03.894Z,36.98
2024-03-05T08:44:30.545Z,37.04
2024-03-05T08:46:56.915Z,37.00
2024-03-05T08:49:23.287Z,36.96
2024-03-05T08:51:49.620Z,36.91
2024-03-05T08:54:18.046Z,36.94
2024-03-05T08:56:42.472Z,36.89
2024-03-05T08:59:08.845Z,36.88
2024-03-05T09:01:35.170Z,36.89
2024-03-05T09:04:01.556Z,36.79
2024-03-05T09:06:27.885Z,36.79
2024-03-05T09:08:54.348Z,36.75
2024-03-05T09:11:20.897Z,36.77
2024-03-05T09:13:47.574Z,36.76
2024-03-05T09:16:13.538Z,36.68
2024-03-05T09:18:39.865Z,36.67
2024-03-05T09:21:06.215Z,36.60
2024-03-05T09:23:32.656Z,36.59
2024-03-05T09:25:59.050Z,36.51
2024-03-05T09:28:25.336Z,36.51
2024-03-05T09:30:51.715Z,36.51
2024-03-05T09:33:18.131Z,36.43
2024-03-05T09:35:44.523Z,36.48
2024-03-05T09:38:10.944Z,36.36
2024-03-05T09:40:37.399Z,36.31
2024-03-05T09:43:03.784Z,36.32
2024-03-05T09:45:30.111Z,36.17
2024-03-05T09:47:56.616Z,36.17
2024-03-05T09:50:22.979Z,36.17
2024-03-05T09:52:49.323Z,36.15
2024-03-05T09:55:15.654Z,36.14
2024-03-05T09:57:42.319Z,36.13
2024-03-05T10:00:08.507Z,36.16
2024-03-05T10:02:34.863Z,36.13
2024-03-05T10:05:01.189Z,36.03
2024-03-05T10:07:27.503Z,36.07
2024-03-05T10:09:53.778Z,36.06
2024-03-05T10:12:20.153Z,36.02
2024-03-05T10:14:46.635Z,36.07
2024-03-05T10:17:13.022Z,36.05
2024-03-05T10:19:39.474Z,36.09
2024-03-05T10:22:05.994Z,36.16
2024-03-05T10:24:32.795Z,36.08
2024-03-05T10:26:58.954Z,36.07
2024-03-05T10:29:25.338Z,36.03
2024-03-05T10:31:51.787Z,35.96
2024-03-05T10:34:18.260Z,35.97
2024-03-05T10:36:44.537Z,36.14
2024-03-05T10:39:10.869Z,35.89
2024-03-05T10:41:43.581Z,35.96
2024-03-05T10:44:03.567Z,35.91
2024-03-05T10:46:29.994Z,35.89
2024-03-05T10:48:56.452Z,35.83
2024-03-05T10:51:22.708Z,35.85
2024-03-05T10:53:49.171Z,35.80
2024-03-05T10:56:16.138Z,35.75
2024-03-05T10:58:41.988Z,35.71
2024-03-05T11:01:08.305Z,35.81
2024-03-05T11:03:34.694Z,35.67
2024-03-05T11:06:01.228Z,35.68
2024-03-05T11:08:27.559Z,35.70
2024-03-05T11:10:54.086Z,35.79
2024-03-05T11:13:20.468Z,35.65
2024-03-05T11:15:46.858Z,35.85
2024-03-05T11:18:13.360Z,35.74
2024-03-05T11:20:39.623Z,35.72
2024-03-05T11:23:06.133Z,35.79
2024-03-05T11:25:32.534Z,35.87
2024-03-05T11:27:58.925Z,35.95
2024-03-05T11:30:25.370Z,35.78
2024-03-05T11:32:51.997Z,35.80
2024-03-05T11:35:18.223Z,35.66
2024-03-05T11:37:44.592Z,35.58
2024-03-05T11:40:11.638Z,35.74
2024-03-05T11:42:37.327Z,35.88
2024-03-05T11:45:03.818Z,35.76
2024-03-05T11:47:30.239Z,35.78
2024-03-05T11:49:56.645Z,35.73
2024-03-05T11:52:23.104Z,35.70
2024-03-05T11:54:49.482Z,35.62
2024-03-05T11:57:15.953Z,35.38
2024-03-05T11:59:42.357Z,35.52
2024-03-05T12:02:08.900Z,35.57
2024-03-05T12:04:35.229Z,35.60
2024-03-05T12:07:01.547Z,35.56
2024-03-05T12:09:27.882Z,35.59
2024-03-05T12:11:54.267Z,35.57
2024-03-05T12:14:20.561Z,35.61
2024-03-05T12:16:46.938Z,35.60
2024-03-05T12:19:13.199Z,35.55
2024-03-05T12:21:39.793Z,35.53
2024-03-05T12:24:06.127Z,35.57
2024-03-05T12:26:32.481Z,35.58
2024-03-05T12:28:59.113Z,35.73
2024-03-05T12:31:25.419Z,35.62
2024-03-05T12:33:51.788Z,35.82
2024-03-05T12:36:18.137Z,35.64
2024-03-05T12:38:44.559Z,35.64
2024-03-05T12:41:10.947Z,35.69
2024-03-05T12:43:37.452Z,35.77
2024-03-05T12:46:04.220Z,35.77
2024-03-05T12:48:30.084Z,35.67
2024-03-05T12:50:56.374Z,35.78
2024-03-05T12:53:22.754Z,36.05
2024-03-05T12:55:49.502Z,35.91
2024-03-05T12:58:15.525Z,35.94
2024-03-05T13:00:41.865Z,35.90
2024-03-05T13:03:08.348Z,35.96
2024-03-05T13:05:34.606Z,35.91
2024-03-05T13:08:01.016Z,35.85
2024-03-05T13:10:27.438Z,35.95
2024-03-05T13:12:53.915Z,35.95
2024-03-05T13:15:20.307Z,35.95
2024-03-05T13:17:46.819Z,35.89
2024-03-05T13:20:13.001Z,35.83
2024-03-05T13:22:39.475Z,35.90
2024-03-05T13:25:05.858Z,35.77
2024-03-05T13:27:32.188Z,35.79
2024-03-05T13:30:05.954Z,35.82
2024-03-05T13:32:24.848Z,35.80
2024-03-05T13:34:51.386Z,35.85
2024-03-05T13:37:17.823Z,35.84
2024-03-05T13:39:44.272Z,35.81
2024-03-05T13:42:10.658Z,35.82
2024-03-05T13:44:37.008Z,35.75
2024-03-05T13:47:03.528Z,35.80
2024-03-05T13:49:29.929Z,35.75
2024-03-05T13:51:56.455Z,35.81
2024-03-05T13:54:22.853Z,35.75
2024-03-05T13:56:49.187Z,35.90
2024-03-05T13:59:15.671Z,35.90
2024-03-05T14:01:42.000Z,35.85
2024-03-05T14:04:08.309Z,36.04
2024-03-05T14:06:34.660Z,36.05
2024-03-05T14:09:01.172Z,36.10
2024-03-05T14:11:27.608Z,36.11
2024-03-05T14:13:54.085Z,36.22
2024-03-05T14:16:20.482Z,36.25
2024-03-05T14:18:46.902Z,36.29
2024-03-05T14:21:13.242Z,36.32
2024-03-05T14:23:39.843Z,36.31
2024-03-05T14:26:07.193Z,36.30
2024-03-05T14:28:33.412Z,36.38
2024-03-05T14:30:59.677Z,36.25
2024-03-05T14:33:26.107Z,36.14
2024-03-05T14:35:52.543Z,36.19
2024-03-05T14:38:18.910Z,36.10
2024-03-05T14:40:45.343Z,36.08
2024-03-05T14:43:11.644Z,36.13
2024-03-05T14:45:38.000Z,36.09
2024-03-05T14:48:04.588Z,36.05
2024-03-05T14:50:30.905Z,36.10
2024-03-05T14:52:57.209Z,36.03
2024-03-05T14:55:23.511Z,36.10
2024-03-05T14:57:50.000Z,36.06
2024-03-05T15:00:16.410Z,35.99
2024-03-05T15:02:42.915Z,36.04
2024-03-05T15:05:09.244Z,36.08
2024-03-05T15:07:35.572Z,36.10
2024-03-05T15:10:01.857Z,36.12
2024-03-05T15:12:30.098Z,36.15
2024-03-05T15:14:54.672Z,36.09
2024-03-05T15:17:21.105Z,36.12
2024-03-05T15:19:47.429Z,36.09
2024-03-05T15:22:13.715Z,36.03
2024-03-05T15:24:40.194Z,36.04
2024-03-05T15:27:06.670Z,36.08
2024-03-05T15:29:32.898Z,36.09
2024-03-05T15:31:59.316Z,36.06
2024-03-05T15:34:25.745Z,36.10
2024-03-05T15:36:52.155Z,36.06
2024-03-05T15:39:18.600Z,36.11
2024-03-05T15:41:45.036Z,36.06
2024-03-05T15:44:11.381Z,36.04
2024-03-05T15:46:37.685Z,36.00
2024-03-05T15:49:04.111Z,36.11
2024-03-05T15:51:30.431Z,36.03
2024-03-05T15:53:56.943Z,36.01
2024-03-05T15:56:23.373Z,35.98
2024-03-05T15:58:49.760Z,36.02
2024-03-05T16:01:16.124Z,36.05
2024-03-05T16:03:52.543Z,36.02
2024-03-05T16:06:17.999Z,36.05
2024-03-05T16:08:35.303Z,36.01
2024-03-05T16:11:01.911Z,36.10
2024-03-05T16:13:28.263Z,36.20
2024-03-05T16:15:54.572Z,36.28
2024-03-05T16:18:21.073Z,36.23
2024-03-05T16:20:47.598Z,36.26
2024-03-05T16:23:14.029Z,36.18
2024-03-05T16:25:40.558Z,36.09
2024-03-05T16:28:06.715Z,36.06
2024-03-05T16:30:33.183Z,36.03
2024-03-05T16:32:59.559Z,36.00
2024-03-05T16:35:25.875Z,35.99
2024-03-05T16:37:52.292Z,35.93
2024-03-05T16:40:19.974Z,35.94
2024-03-05T16:42:45.125Z,35.90
2024-03-05T16:45:11.449Z,35.88
2024-03-05T16:47:37.950Z,35.84
2024-03-05T16:50:04.425Z,35.84
2024-03-05T16:52:30.704Z,35.85
2024-03-05T16:54:57.097Z,35.83
2024-03-05T16:57:23.408Z,35.85
2024-03-05T16:59:49.848Z,35.78
2024-03-05T17:02:16.437Z,35.75
2024-03-05T17:04:42.829Z,35.80
2024-03-05T17:07:09.174Z,35.72
2024-03-05T17:09:35.542Z,35.73
2024-03-05T17:12:01.987Z,35.74
2024-03-05T17:14:28.436Z,35.66
2024-03-05T17:16:54.827Z,35.72
2024-03-05T17:19:21.245Z,35.69
2024-03-05T17:21:47.580Z,35.60
2024-03-05T17:24:14.076Z,35.61
2024-03-05T17:26:40.492Z,35.54
2024-03-05T17:29:07.320Z,35.54
2024-03-05T17:31:33.314Z,35.53
2024-03-05T17:33:59.498Z,35.51
2024-03-05T17:36:25.829Z,35.51
2024-03-05T17:38:52.153Z,35.44
2024-03-05T17:41:18.561Z,35.38
2024-03-05T17:43:44.851Z,35.34
2024-03-05T17:46:11.156Z,35.34
2024-03-05T17:48:37.485Z,35.25
2024-03-05T17:51:03.964Z,35.23
2024-03-05T17:53:30.365Z,35.20
2024-03-05T17:55:56.726Z,35.21
2024-03-05T17:58:23.169Z,35.13
2024-03-05T18:00:49.639Z,35.13
2024-03-05T18:03:16.222Z,35.13
2024-03-05T18:05:42.443Z,35.09
2024-03-05T18:08:08.856Z,35.05
2024-03-05T18:10:35.168Z,35.05
2024-03-05T18:13:01.542Z,34.96
2024-03-05T18:15:28.027Z,34.93
2024-03-05T18:17:54.457Z,34.87
2024-03-05T18:20:21.241Z,34.89
2024-03-05T18:22:47.210Z,34.84
2024-03-05T18:25:13.617Z,34.87
2024-03-05T18:27:40.104Z,34.80
2024-03-05T18:30:06.478Z,34.77
2024-03-05T18:32:32.928Z,34.70
2024-03-05T18:34:59.224Z,34.70
2024-03-05T18:37:25.587Z,34.66
2024-03-05T18:39:51.983Z,34.67
2024-03-05T18:42:18.417Z,34.68
2024-03-05T18:44:44.723Z,34.56
2024-03-05T18:47:11.074Z,34.56
2024-03-05T18:49:37.397Z,34.49
2024-03-05T18:52:03.725Z,34.44
2024-03-05T18:54:30.048Z,34.45
2024-03-05T18:56:56.525Z,34.40
2024-03-05T18:59:22.802Z,34.41
2024-03-05T19:01:49.112Z,34.41
2024-03-05T19:04:15.526Z,34.41
2024-03-05T19:06:41.954Z,34.37
2024-03-05T19:09:08.285Z,34.33
2024-03-05T19:11:34.757Z,34.32
2024-03-05T19:14:01.076Z,34.35
2024-03-05T19:16:27.383Z,34.33
2024-03-05T19:18:53.855Z,34.32
2024-03-05T19:21:20.338Z,34.28
2024-03-05T19:23:46.690Z,34.27
2024-03-05T19:26:13.167Z,34.33
2024-03-05T19:28:40.996Z,34.28
2024-03-05T19:31:05.905Z,34.29
2024-03-05T19:33:32.230Z,34.24
2024-03-05T19:35:59.141Z,34.28
2024-03-05T19:38:24.970Z,34.26
2024-03-05T19:40:51.347Z,34.26
2024-03-05T19:43:17.750Z,34.22
2024-03-05T19:45:44.082Z,34.20
2024-03-05T19:48:10.500Z,34.20
2024-03-05T19:50:36.743Z,34.20
2024-03-05T19:53:03.204Z,34.19
2024-03-05T19:55:29.607Z,34.17
2024-03-05T19:57:56.043Z,34.14
2024-03-05T20:00:22.368Z,34.08
2024-03-05T20:02:49.082Z,34.09
2024-03-05T20:05:15.264Z,34.06
2024-03-05T20:07:41.593Z,34.07
2024-03-05T20:10:07.888Z,34.04
2024-03-05T20:12:34.225Z,34.05
2024-03-05T20:15:00.556Z,34.08
2024-03-05T20:17:27.794Z,34.00
2024-03-05T20:19:53.348Z,33.99
2024-03-05T20:22:19.756Z,33.99
2024-03-05T20:24:46.189Z,33.98
2024-03-05T20:27:12.619Z,33.99
2024-03-05T20:29:38.931Z,34.05
2024-03-05T20:32:05.518Z,34.04
2024-03-05T20:34:31.827Z,34.00
2024-03-05T20:36:58.126Z,34.00
2024-03-05T20:39:24.583Z,34.02
2024-03-05T20:41:50.888Z,34.04
2024-03-05T20:44:17.249Z,34.00
2024-03-05T20:46:43.709Z,34.00
2024-03-05T20:49:09.995Z,34.01
2024-03-05T20:51:36.419Z,33.96
2024-03-05T20:54:02.792Z,33.98
2024-03-05T20:56:29.156Z,33.97
2024-03-05T20:58:55.568Z,33.99
2024-03-05T21:01:21.911Z,33.99
2024-03-05T21:03:48.329Z,34.04
2024-03-05T21:06:14.733Z,34.01
2024-03-05T21:08:41.084Z,34.01
2024-03-05T21:11:07.672Z,33.99
2024-03-05T21:13:33.982Z,33.99
2024-03-05T21:16:00.352Z,33.99
2024-03-05T21:18:26.799Z,34.00
2024-03-05T21:20:53.233Z,33.99
2024-03-05T21:23:19.793Z,33.98
2024-03-05T21:26:00.666Z,34.03
2024-03-05T21:28:12.617Z,34.01
2024-03-05T21:30:41.205Z,33.97
2024-03-05T21:33:05.524Z,34.00
2024-03-05T21:35:31.937Z,34.00
2024-03-05T21:37:58.390Z,33.98
2024-03-05T21:40:24.655Z,34.01
2024-03-05T21:42:51.141Z,34.04
2024-03-05T21:45:17.552Z,34.04
2024-03-05T21:47:45.390Z,34.02
2024-03-05T21:50:10.515Z,34.02
2024-03-05T21:52:36.903Z,33.99
2024-03-05T21:55:03.207Z,34.00
2024-03-05T21:57:29.528Z,33.98
2024-03-05T21:59:55.961Z,33.99
2024-03-05T22:02:22.328Z,33.94
2024-03-05T22:04:48.737Z,33.96
2024-03-05T22:07:15.185Z,33.95
2024-03-05T22:09:41.597Z,33.98
2024-03-05T22:12:08.129Z,33.92
2024-03-05T22:17:19.624Z,33.90
2024-03-05T22:19:45.923Z,33.94
2024-03-05T22:22:12.395Z,33.90
2024-03-05T22:24:38.844Z,33.91
2024-03-05T22:27:05.262Z,33.90
2024-03-05T22:29:31.626Z,33.91
2024-03-05T22:31:58.044Z,33.89
2024-03-05T22:34:24.263Z,33.94
2024-03-05T22:36:50.604Z,33.96
2024-03-05T22:39:17.004Z,33.92
2024-03-05T22:41:43.456Z,33.96
2024-03-05T22:44:10.003Z,34.00
2024-03-05T22:46:36.344Z,33.94
2024-03-05T22:49:02.755Z,33.91
2024-03-05T22:51:29.064Z,33.91
2024-03-05T22:53:55.370Z,33.89
2024-03-05T22:56:21.783Z,33.91
2024-03-05T22:58:48.139Z,33.94
2024-03-05T23:01:14.535Z,33.92
2024-03-05T23:03:40.860Z,33.89
2024-03-05T23:06:15.205Z,33.91
2024-03-05T23:08:33.578Z,33.94
2024-03-05T23:11:00.131Z,33.91
2024-03-05T23:13:26.454Z,33.89
2024-03-05T23:15:52.911Z,33.94
2024-03-05T23:18:19.322Z,33.93
2024-03-05T23:20:45.781Z,33.93
2024-03-05T23:23:12.225Z,33.93
2024-03-05T23:25:38.654Z,33.93
2024-03-05T23:28:04.956Z,33.95
2024-03-05T23:30:31.352Z,33.92
2024-03-05T23:32:57.731Z,33.94
2024-03-05T23:35:24.265Z,33.93
2024-03-05T23:37:50.633Z,33.96
2024-03-05T23:40:17.014Z,33.96
2024-03-05T23:42:43.323Z,33.96
2024-03-05T23:45:11.769Z,33.98
2024-03-05T23:47:36.262Z,33.98
2024-03-05T23:52:47.976Z,34.00
2024-03-05T23:55:14.396Z,33.95
2024-03-05T23:57:40.817Z,33.95
